Time;durP1;ratioP1;P1;durP2;ratioP2;P2;SDS_P1;SDS_P2;PMS_P1;PMS_P2;Temp;Humidity;BMP_temperature;BMP_pressure;BME280_temperature;BME280_humidity;BME280_pressure;Samples;Min_cycle;Max_cycle;Signal;HPM_P1;HPM_P2
2023/06/06 00:00:15;;;;;;;5.00;3.50;;;;;;;21.81;48.31;97418.84;5070126;28;20439;-70
2023/06/06 00:02:43;;;;;;;6.87;3.60;;;;;;;21.77;48.34;97419.28;5088278;28;20427;-71
2023/06/06 00:05:11;;;;;;;3.60;3.30;;;;;;;21.74;48.38;97419.72;5088040;28;20523;-71
2023/06/06 00:07:38;;;;;;;4.30;3.90;;;;;;;21.67;48.33;97421.63;5085282;28;20457;-70
2023/06/06 00:10:04;;;;;;;5.40;3.80;;;;;;;21.61;48.51;97420.66;5088731;28;20890;-67
2023/06/06 00:12:32;;;;;;;6.90;4.17;;;;;;;21.53;48.82;97420.91;5087217;28;20548;-69
2023/06/06 00:14:59;;;;;;;8.63;3.57;;;;;;;21.51;48.84;97428.31;5088098;28;20185;-69
2023/06/06 00:17:25;;;;;;;5.87;3.57;;;;;;;21.48;49.02;97429.53;5087383;28;20467;-69
2023/06/06 00:19:52;;;;;;;4.80;3.70;;;;;;;21.43;49.12;97431.22;5088261;28;20432;-70
2023/06/06 00:22:22;;;;;;;5.13;4.07;;;;;;;21.27;49.27;97427.25;5087529;28;20434;-69
2023/06/06 00:24:52;;;;;;;3.60;3.17;;;;;;;21.29;49.47;97431.34;5092025;28;20450;-70
2023/06/06 00:27:17;;;;;;;3.80;3.50;;;;;;;21.25;49.37;97440.78;5086645;28;20463;-68
2023/06/06 00:29:43;;;;;;;7.80;3.37;;;;;;;21.28;49.42;97435.03;5091379;28;20431;-69
2023/06/06 00:32:08;;;;;;;3.97;3.50;;;;;;;21.22;49.35;97438.53;5086629;28;20453;-66
2023/06/06 00:34:33;;;;;;;3.70;3.13;;;;;;;21.17;50.02;97433.88;5086648;28;20232;-68
2023/06/06 00:36:59;;;;;;;3.77;3.37;;;;;;;21.14;49.65;97431.63;5087912;28;20213;-68
2023/06/06 00:39:24;;;;;;;3.57;3.27;;;;;;;21.18;49.42;97434.66;5088973;28;20213;-68
2023/06/06 00:41:50;;;;;;;4.10;3.40;;;;;;;21.19;49.49;97441.63;5088774;28;20186;-69
2023/06/06 00:44:15;;;;;;;5.37;3.57;;;;;;;21.16;49.77;97440.22;5085776;28;20188;-68
2023/06/06 00:46:42;;;;;;;7.03;3.37;;;;;;;21.10;49.60;97426.94;5092306;28;20189;-69
2023/06/06 00:49:10;;;;;;;4.37;3.47;;;;;;;21.07;49.13;97433.53;5066729;28;20179;-68
2023/06/06 00:51:36;;;;;;;5.90;3.43;;;;;;;21.00;49.65;97438.06;5068829;28;20491;-70
2023/06/06 00:54:02;;;;;;;3.53;3.03;;;;;;;20.97;49.79;97441.97;5087025;28;20488;-68
2023/06/06 00:56:29;;;;;;;6.73;3.80;;;;;;;20.99;49.66;97437.25;5086296;28;20927;-69
2023/06/06 00:58:57;;;;;;;4.83;3.70;;;;;;;20.95;49.69;97430.72;5068654;28;20502;-69
2023/06/06 01:01:28;;;;;;;3.77;3.47;;;;;;;20.92;49.24;97420.47;5056988;28;20519;-69
2023/06/06 01:03:56;;;;;;;3.83;3.43;;;;;;;20.82;49.54;97434.28;5085732;28;20431;-70
2023/06/06 01:06:22;;;;;;;3.77;3.47;;;;;;;20.75;49.66;97427.34;5068589;28;20436;-71
2023/06/06 01:08:48;;;;;;;3.53;3.23;;;;;;;20.77;49.95;97428.75;5086756;28;20487;-70
2023/06/06 01:11:20;;;;;;;3.40;3.10;;;;;;;20.77;49.82;97430.63;5069124;28;20213;-69
2023/06/06 01:13:55;;;;;;;3.47;3.20;;;;;;;20.74;49.88;97425.69;5051675;28;20829;-68
2023/06/06 01:16:21;;;;;;;3.80;3.50;;;;;;;20.73;49.49;97422.19;5068322;28;20480;-69
2023/06/06 01:18:48;;;;;;;4.30;3.53;;;;;;;20.68;49.74;97430.00;5086478;28;20540;-69
2023/06/06 01:21:14;;;;;;;5.03;3.30;;;;;;;20.63;50.26;97427.97;5068618;28;20192;-70
2023/06/06 01:23:43;;;;;;;3.20;2.90;;;;;;;20.56;49.89;97427.19;5068581;28;20435;-70
2023/06/06 01:26:08;;;;;;;4.00;3.60;;;;;;;20.48;50.33;97424.75;5087575;28;20439;-68
2023/06/06 01:28:34;;;;;;;3.70;3.40;;;;;;;20.47;50.35;97423.97;5086404;28;20440;-69
2023/06/06 01:31:00;;;;;;;5.37;3.17;;;;;;;20.45;50.61;97425.19;5086431;28;20193;-68
2023/06/06 01:33:43;;;;;;;3.90;3.60;;;;;;;20.44;50.26;97426.19;5085933;28;20230;-69
2023/06/06 01:36:37;;;;;;;4.70;3.20;;;;;;;20.42;50.29;97424.56;5063917;28;20458;-68
2023/06/06 01:39:09;;;;;;;4.10;3.27;;;;;;;20.37;50.33;97424.41;5068364;28;20431;-69
2023/06/06 01:41:36;;;;;;;3.83;3.20;;;;;;;20.28;49.95;97423.00;5068763;28;20428;-69
2023/06/06 01:44:03;;;;;;;3.40;3.00;;;;;;;20.25;50.73;97420.75;5070860;28;20475;-69
2023/06/06 01:46:28;;;;;;;4.10;3.37;;;;;;;20.25;50.04;97423.41;5058495;28;20474;-69
2023/06/06 01:48:54;;;;;;;3.47;3.17;;;;;;;20.24;50.30;97424.44;5084062;28;20432;-71
2023/06/06 01:51:20;;;;;;;3.00;2.80;;;;;;;20.24;50.30;97416.44;5067683;28;20209;-69
2023/06/06 01:53:45;;;;;;;3.70;2.97;;;;;;;20.20;50.10;97421.38;5070872;28;20451;-67
2023/06/06 01:56:13;;;;;;;3.13;2.83;;;;;;;20.17;50.40;97418.28;5099610;28;20858;-69
2023/06/06 01:58:42;;;;;;;3.60;3.30;;;;;;;20.16;50.29;97422.00;5090051;28;20338;-72
2023/06/06 02:01:08;;;;;;;3.70;2.90;;;;;;;20.15;50.31;97423.84;5087139;28;20474;-69
2023/06/06 02:03:34;;;;;;;5.00;3.10;;;;;;;20.10;49.67;97420.97;5091822;28;20435;-69
2023/06/06 02:06:01;;;;;;;3.50;3.00;;;;;;;20.06;50.00;97422.44;5090945;28;20442;-68
2023/06/06 02:08:26;;;;;;;2.93;2.73;;;;;;;19.94;50.39;97424.91;5087167;28;20452;-69
2023/06/06 02:10:52;;;;;;;3.23;2.93;;;;;;;19.92;51.07;97427.78;5090538;28;20852;-70
2023/06/06 02:13:17;;;;;;;3.53;3.00;;;;;;;19.97;50.45;97429.81;5090253;28;20276;-70
2023/06/06 02:15:43;;;;;;;3.20;2.87;;;;;;;19.94;50.44;97435.53;5092502;28;20227;-71
2023/06/06 02:18:08;;;;;;;3.20;2.90;;;;;;;19.93;50.27;97433.91;5086622;28;20225;-69
2023/06/06 02:20:34;;;;;;;5.83;3.20;;;;;;;19.87;50.29;97434.72;5089590;28;20193;-69
2023/06/06 02:23:00;;;;;;;4.10;3.20;;;;;;;19.83;50.40;97433.47;5072878;28;20192;-70
2023/06/06 02:25:26;;;;;;;3.93;3.37;;;;;;;19.80;50.56;97435.50;5089711;28;20610;-71
2023/06/06 02:27:53;;;;;;;4.53;3.47;;;;;;;19.73;50.66;97434.72;5092364;28;20456;-69
2023/06/06 02:30:19;;;;;;;3.30;3.00;;;;;;;19.72;50.55;97434.94;5090329;28;20522;-70
2023/06/06 02:32:45;;;;;;;4.43;3.03;;;;;;;19.69;50.53;97438.78;5089676;28;20708;-69
2023/06/06 02:35:10;;;;;;;3.67;3.07;;;;;;;19.68;50.73;97437.16;5092487;28;20198;-68
2023/06/06 02:37:36;;;;;;;3.13;2.93;;;;;;;19.70;50.74;97440.44;5088325;28;20218;-69
2023/06/06 02:40:10;;;;;;;4.83;3.50;;;;;;;19.62;50.17;97440.66;5072664;28;20197;-69
2023/06/06 02:42:38;;;;;;;3.50;3.20;;;;;;;19.65;50.59;97440.25;5088061;28;20185;-69
2023/06/06 02:45:04;;;;;;;3.07;2.87;;;;;;;19.64;50.53;97443.94;5091233;28;20508;-68
2023/06/06 02:47:30;;;;;;;3.60;2.83;;;;;;;19.62;50.51;97438.78;5091446;28;20512;-69
2023/06/06 02:49:56;;;;;;;3.80;3.50;;;;;;;19.60;50.64;97440.84;5092227;28;20803;-69
2023/06/06 02:52:22;;;;;;;3.80;3.40;;;;;;;19.60;50.54;97440.84;5089298;28;20297;-69
2023/06/06 02:54:47;;;;;;;3.80;3.50;;;;;;;19.56;50.54;97439.63;5086890;28;20250;-68
2023/06/06 02:57:12;;;;;;;5.30;3.30;;;;;;;19.55;50.56;97445.13;5089106;28;20865;-69
2023/06/06 02:59:38;;;;;;;5.33;3.80;;;;;;;19.50;50.77;97437.78;5088765;28;20216;-70
2023/06/06 03:02:04;;;;;;;5.17;3.20;;;;;;;19.43;50.67;97451.06;5089336;28;20259;-70
2023/06/06 03:04:29;;;;;;;3.90;3.50;;;;;;;19.37;50.76;97445.72;5088473;28;20243;-70
2023/06/06 03:06:56;;;;;;;4.10;3.70;;;;;;;19.34;51.20;97452.28;5089344;28;20455;-71
2023/06/06 03:09:24;;;;;;;4.07;3.00;;;;;;;19.20;51.44;97451.44;5090917;28;20214;-69
2023/06/06 03:11:49;;;;;;;3.77;3.33;;;;;;;19.19;51.43;97445.31;5092775;28;20463;-69
2023/06/06 03:14:15;;;;;;;5.80;3.33;;;;;;;19.22;51.36;97446.72;5088201;28;20422;-71
2023/06/06 03:16:41;;;;;;;4.87;3.67;;;;;;;19.22;51.24;97451.25;5090588;28;20243;-69
2023/06/06 03:19:07;;;;;;;5.90;3.47;;;;;;;19.18;51.36;97454.28;5070665;28;20186;-69
2023/06/06 03:21:33;;;;;;;6.93;3.50;;;;;;;19.16;51.23;97453.66;5088799;28;20534;-70
2023/06/06 03:23:59;;;;;;;4.40;3.90;;;;;;;19.17;51.14;97457.97;5070367;28;20604;-71
2023/06/06 03:26:26;;;;;;;6.20;3.70;;;;;;;19.15;51.19;97460.00;5058586;28;20474;-70
2023/06/06 03:28:52;;;;;;;8.27;3.70;;;;;;;19.16;51.20;97461.63;5088690;28;20470;-69
2023/06/06 03:31:23;;;;;;;11.47;3.70;;;;;;;19.13;50.99;97462.06;5088762;28;20551;-70
2023/06/06 03:33:52;;;;;;;4.67;3.53;;;;;;;19.09;50.91;97465.31;5091169;28;20201;-68
2023/06/06 03:36:19;;;;;;;5.10;3.73;;;;;;;19.02;51.04;97470.63;5067457;28;20447;-69
2023/06/06 03:38:45;;;;;;;5.03;3.77;;;;;;;18.99;51.69;97476.31;5086825;28;20469;-71
2023/06/06 03:41:10;;;;;;;10.47;4.80;;;;;;;19.00;51.44;97478.75;5088839;28;20443;-70
2023/06/06 03:43:36;;;;;;;6.20;4.40;;;;;;;18.97;51.57;97473.03;5088126;28;20198;-70
2023/06/06 03:46:01;;;;;;;5.00;4.00;;;;;;;18.98;51.70;97480.00;5090257;28;20196;-69
2023/06/06 03:48:26;;;;;;;4.57;4.00;;;;;;;19.00;51.34;97483.28;5088156;28;20288;-69
2023/06/06 03:50:52;;;;;;;5.03;3.73;;;;;;;19.04;51.67;97487.16;5089075;28;20270;-70
2023/06/06 03:53:17;;;;;;;5.20;3.83;;;;;;;19.05;51.29;97480.81;5088113;28;20263;-68
2023/06/06 03:55:44;;;;;;;4.43;3.23;;;;;;;18.94;51.56;97478.75;5069504;28;20202;-69
2023/06/06 03:58:10;;;;;;;4.33;3.90;;;;;;;18.93;51.91;97471.75;5088924;28;20241;-69
2023/06/06 04:00:37;;;;;;;6.37;3.97;;;;;;;18.97;51.59;97473.84;5088168;28;20440;-68
2023/06/06 04:03:03;;;;;;;3.33;3.00;;;;;;;18.96;51.86;97474.88;5087850;28;20428;-69
2023/06/06 04:05:32;;;;;;;3.97;3.53;;;;;;;18.96;51.95;97482.03;5085915;28;20475;-69
2023/06/06 04:07:58;;;;;;;4.00;3.47;;;;;;;19.01;51.78;97479.59;5087950;28;20475;-68
2023/06/06 04:10:24;;;;;;;4.30;3.60;;;;;;;19.01;51.88;97482.25;5088634;28;20526;-69
2023/06/06 04:12:50;;;;;;;4.97;4.20;;;;;;;19.05;52.05;97480.00;5066407;28;20593;-68
2023/06/06 04:15:15;;;;;;;4.30;3.90;;;;;;;19.01;52.17;97479.59;5078442;28;20926;-68
2023/06/06 04:17:41;;;;;;;5.83;3.43;;;;;;;19.03;52.20;97483.69;5085623;28;20201;-69
2023/06/06 04:20:08;;;;;;;5.77;3.60;;;;;;;19.03;52.06;97482.84;5082192;28;20197;-68
2023/06/06 04:22:33;;;;;;;5.07;3.90;;;;;;;19.05;52.41;97487.97;5086888;28;20220;-71
2023/06/06 04:24:59;;;;;;;5.27;3.97;;;;;;;19.07;51.98;97489.41;5087682;28;20459;-68
2023/06/06 04:27:25;;;;;;;7.80;4.23;;;;;;;19.11;52.30;97484.50;5080596;28;20218;-68
2023/06/06 04:29:53;;;;;;;5.00;4.10;;;;;;;19.09;52.34;97484.72;5087501;28;20186;-68
2023/06/06 04:32:19;;;;;;;6.53;4.30;;;;;;;19.13;51.90;97483.31;5070829;28;20255;-68
2023/06/06 04:34:45;;;;;;;7.17;4.20;;;;;;;19.11;52.35;97490.66;5084011;28;20432;-69
2023/06/06 04:37:13;;;;;;;5.00;4.50;;;;;;;19.11;52.08;97501.28;5083054;28;20497;-69
2023/06/06 04:39:39;;;;;;;5.20;4.07;;;;;;;19.05;53.11;97490.63;5087667;28;20463;-68
2023/06/06 04:42:06;;;;;;;9.13;4.70;;;;;;;19.15;52.60;97494.53;5085598;28;20447;-69
2023/06/06 04:44:41;;;;;;;6.53;4.67;;;;;;;19.23;52.78;97498.03;5082325;28;20442;-69
2023/06/06 04:47:07;;;;;;;5.00;4.00;;;;;;;19.28;52.54;97492.97;5085276;28;20535;-70
2023/06/06 04:49:36;;;;;;;5.10;4.43;;;;;;;19.33;52.71;97495.81;5087397;28;20946;-72
2023/06/06 04:52:05;;;;;;;5.70;4.50;;;;;;;19.40;52.52;97499.31;5081466;28;20546;-70
2023/06/06 04:54:34;;;;;;;7.77;4.43;;;;;;;19.40;52.50;97501.97;5081483;28;20812;-71
2023/06/06 04:57:02;;;;;;;7.73;4.30;;;;;;;19.44;52.70;97503.19;5079808;28;21058;-69
2023/06/06 04:59:28;;;;;;;6.93;4.20;;;;;;;19.43;52.65;97498.88;5082563;28;20435;-71
2023/06/06 05:01:56;;;;;;;4.80;4.13;;;;;;;19.50;52.90;97496.25;5095570;28;20432;-70
2023/06/06 05:04:23;;;;;;;5.63;4.07;;;;;;;19.59;52.55;97496.88;5085140;28;20260;-70
2023/06/06 05:06:48;;;;;;;4.77;4.03;;;;;;;19.65;52.67;97504.06;5072376;28;20431;-69
2023/06/06 05:09:14;;;;;;;5.93;4.73;;;;;;;19.62;52.34;97501.78;5087034;28;20435;-71
2023/06/06 05:11:45;;;;;;;5.37;4.40;;;;;;;19.64;53.07;97511.19;5088328;28;20195;-71
2023/06/06 05:14:10;;;;;;;5.60;4.40;;;;;;;19.76;52.98;97508.75;5081887;28;20323;-70
2023/06/06 05:16:36;;;;;;;4.80;4.20;;;;;;;19.90;52.38;97512.25;5087665;28;20439;-72
2023/06/06 05:19:02;;;;;;;7.30;4.40;;;;;;;20.02;52.32;97514.28;5087205;28;20193;-69
2023/06/06 05:21:27;;;;;;;5.63;4.87;;;;;;;20.10;51.98;97517.56;5092286;28;20592;-70
2023/06/06 05:23:54;;;;;;;7.27;4.57;;;;;;;20.20;51.97;97508.34;5084170;28;20673;-70
2023/06/06 05:26:20;;;;;;;4.83;4.10;;;;;;;20.25;51.58;97511.22;5091272;28;20288;-70
2023/06/06 05:28:45;;;;;;;9.10;4.27;;;;;;;20.34;51.33;97517.16;5086250;28;20546;-71
2023/06/06 05:31:12;;;;;;;5.23;4.30;;;;;;;20.38;51.75;97516.53;5079889;28;20731;-72
2023/06/06 05:33:41;;;;;;;6.20;4.70;;;;;;;20.51;51.18;97522.84;5083618;28;20882;-69
2023/06/06 05:36:06;;;;;;;4.97;4.13;;;;;;;20.63;51.24;97526.50;5074783;28;20897;-71
2023/06/06 05:38:32;;;;;;;8.30;4.50;;;;;;;20.72;50.19;97517.25;5086135;28;20465;-69
2023/06/06 05:40:58;;;;;;;4.63;4.13;;;;;;;20.69;50.38;97517.66;5079135;28;20185;-71
2023/06/06 05:43:24;;;;;;;4.97;4.50;;;;;;;20.79;50.51;97522.56;5084309;28;20202;-70
2023/06/06 05:45:50;;;;;;;4.33;3.83;;;;;;;20.95;50.61;97526.59;5081673;28;20665;-71
2023/06/06 05:48:15;;;;;;;4.30;3.90;;;;;;;21.09;49.94;97522.06;5087095;28;20444;-72
2023/06/06 05:50:41;;;;;;;7.83;4.43;;;;;;;21.26;49.14;97526.88;5088287;28;20380;-70
2023/06/06 05:53:06;;;;;;;5.83;4.30;;;;;;;21.35;49.05;97525.63;5094169;28;20671;-70
2023/06/06 05:55:33;;;;;;;6.00;3.87;;;;;;;21.47;48.80;97528.41;5087677;28;20225;-69
2023/06/06 05:57:59;;;;;;;5.73;4.10;;;;;;;21.58;48.26;97530.38;5079051;28;20216;-69
2023/06/06 06:00:26;;;;;;;4.47;3.77;;;;;;;21.69;48.05;97528.91;5094596;28;20431;-70
2023/06/06 06:02:53;;;;;;;4.60;3.87;;;;;;;21.84;47.32;97522.44;5090507;28;20435;-70
2023/06/06 06:05:19;;;;;;;4.27;3.87;;;;;;;21.99;46.68;97519.44;5091279;28;20436;-70
2023/06/06 06:07:44;;;;;;;9.23;3.87;;;;;;;21.90;45.95;97526.91;5068643;28;20462;-70
2023/06/06 06:10:10;;;;;;;6.00;4.10;;;;;;;22.05;46.11;97529.25;5087548;28;20805;-69
2023/06/06 06:12:36;;;;;;;4.23;3.80;;;;;;;22.17;46.20;97526.69;5068778;28;20277;-71
2023/06/06 06:15:02;;;;;;;4.20;3.80;;;;;;;22.24;45.45;97530.94;5087630;28;20197;-70
2023/06/06 06:17:27;;;;;;;8.33;4.03;;;;;;;22.37;45.26;97526.50;5089018;28;20237;-70
2023/06/06 06:19:53;;;;;;;5.47;3.57;;;;;;;22.52;45.13;97535.00;5089565;28;20192;-67
2023/06/06 06:22:19;;;;;;;6.00;4.00;;;;;;;22.66;44.33;97534.88;5087086;28;20188;-67
2023/06/06 06:24:44;;;;;;;13.60;3.80;;;;;;;22.69;43.63;97542.41;5087456;28;20827;-69
2023/06/06 06:27:10;;;;;;;6.73;3.73;;;;;;;22.79;43.14;97547.25;5069023;28;20233;-70
2023/06/06 06:29:35;;;;;;;7.87;3.30;;;;;;;22.84;43.14;97542.06;5069476;28;20217;-69
2023/06/06 06:32:01;;;;;;;5.80;3.40;;;;;;;22.94;43.09;97546.84;5069051;28;20206;-69
2023/06/06 06:34:26;;;;;;;3.97;3.50;;;;;;;23.03;43.08;97550.88;5089087;28;20201;-69
2023/06/06 06:36:51;;;;;;;3.77;3.43;;;;;;;23.00;42.08;97544.09;5085768;28;20275;-69
2023/06/06 06:39:18;;;;;;;4.23;3.20;;;;;;;23.00;42.60;97554.00;5088513;28;20272;-69
2023/06/06 06:41:47;;;;;;;6.10;3.47;;;;;;;23.07;42.77;97552.03;5085126;28;20182;-70
2023/06/06 06:44:12;;;;;;;4.20;3.27;;;;;;;23.04;42.63;97546.34;5090279;28;20428;-72
2023/06/06 06:46:38;;;;;;;4.50;3.73;;;;;;;22.97;42.80;97554.44;5091017;28;20514;-70
2023/06/06 06:49:12;;;;;;;5.73;4.10;;;;;;;22.99;42.54;97552.38;5090200;28;20185;-70
2023/06/06 06:51:38;;;;;;;8.50;4.17;;;;;;;23.05;42.47;97554.16;5090201;28;20208;-70
2023/06/06 06:54:04;;;;;;;3.90;3.60;;;;;;;23.11;41.94;97550.56;5090455;28;20800;-70
2023/06/06 06:56:29;;;;;;;5.80;3.43;;;;;;;23.31;42.19;97553.03;5089250;28;20427;-71
2023/06/06 06:58:55;;;;;;;7.40;4.10;;;;;;;23.47;41.88;97553.44;5089166;28;20363;-70
2023/06/06 07:01:20;;;;;;;4.60;4.03;;;;;;;23.63;41.62;97544.75;5095727;28;20188;-70
2023/06/06 07:03:48;;;;;;;6.00;3.90;;;;;;;23.68;41.17;97549.44;5092421;28;20193;-71
2023/06/06 07:06:13;;;;;;;7.87;3.30;;;;;;;23.84;40.71;97549.78;5091861;28;20205;-70
2023/06/06 07:08:41;;;;;;;4.00;3.60;;;;;;;24.03;40.74;97550.56;5092660;28;20447;-69
2023/06/06 07:11:07;;;;;;;6.33;3.80;;;;;;;24.17;40.07;97545.81;5093966;28;20225;-70
2023/06/06 07:13:32;;;;;;;3.93;3.53;;;;;;;24.29;39.80;97552.00;5090765;28;20540;-70
2023/06/06 07:15:58;;;;;;;6.43;3.73;;;;;;;24.42;39.37;97550.13;5089198;28;20296;-71
2023/06/06 07:18:24;;;;;;;9.70;3.80;;;;;;;24.54;38.93;97550.94;5092208;28;20212;-71
2023/06/06 07:20:52;;;;;;;3.77;3.37;;;;;;;24.59;38.41;97550.22;5088785;28;20190;-70
2023/06/06 07:23:18;;;;;;;4.13;3.80;;;;;;;24.62;38.58;97549.78;5090179;28;20235;-71
2023/06/06 07:25:44;;;;;;;5.17;3.80;;;;;;;24.73;38.34;97556.16;5071405;28;20475;-70
2023/06/06 07:28:13;;;;;;;5.57;3.53;;;;;;;24.89;38.19;97551.97;5089592;28;20307;-70
2023/06/06 07:30:39;;;;;;;4.07;3.77;;;;;;;24.98;37.44;97548.66;5096118;28;20285;-70
2023/06/06 07:33:04;;;;;;;3.30;3.00;;;;;;;25.00;37.07;97543.88;5089840;28;20550;-70
2023/06/06 07:35:32;;;;;;;4.20;3.47;;;;;;;25.16;37.53;97544.19;5092412;28;20227;-71
2023/06/06 07:38:02;;;;;;;5.03;3.37;;;;;;;25.14;35.49;97547.09;5070047;28;20634;-71
2023/06/06 07:40:28;;;;;;;3.30;3.00;;;;;;;25.21;36.15;97546.97;5074004;28;20467;-71
2023/06/06 07:42:54;;;;;;;7.07;3.17;;;;;;;25.30;35.98;97550.91;5088070;28;20428;-70
2023/06/06 07:45:20;;;;;;;4.67;3.53;;;;;;;25.41;35.28;97546.56;5089820;28;20268;-69
2023/06/06 07:47:46;;;;;;;4.03;3.47;;;;;;;25.55;35.02;97544.41;5068492;28;20558;-69
2023/06/06 07:50:11;;;;;;;3.47;3.17;;;;;;;25.66;34.52;97537.34;5087851;28;20439;-70
2023/06/06 07:52:43;;;;;;;3.70;3.40;;;;;;;25.69;34.23;97536.06;5087619;28;20209;-69
2023/06/06 07:55:09;;;;;;;4.50;3.00;;;;;;;25.73;33.99;97542.56;5087124;28;20186;-68
2023/06/06 07:57:35;;;;;;;3.33;3.03;;;;;;;25.69;33.75;97533.38;5087576;28;20447;-71
2023/06/06 08:00:07;;;;;;;5.10;3.67;;;;;;;25.72;33.63;97535.56;5096125;28;20588;-70
2023/06/06 08:02:32;;;;;;;3.73;3.20;;;;;;;25.82;34.06;97538.44;5089468;28;20268;-72
2023/06/06 08:04:59;;;;;;;3.57;3.10;;;;;;;25.54;33.58;97547.31;5093239;28;20577;-69
2023/06/06 08:07:25;;;;;;;3.60;3.00;;;;;;;25.78;33.82;97545.34;5088844;28;20212;-70
2023/06/06 08:09:51;;;;;;;3.53;3.23;;;;;;;25.91;33.84;97547.72;5088378;28;20430;-70
2023/06/06 08:12:16;;;;;;;7.93;3.80;;;;;;;25.79;32.85;97538.91;5091075;28;20562;-68
2023/06/06 08:14:42;;;;;;;8.20;3.27;;;;;;;25.94;33.78;97542.91;5089891;28;20186;-69
2023/06/06 08:17:07;;;;;;;4.33;3.60;;;;;;;26.11;33.63;97537.56;5087501;28;20289;-70
2023/06/06 08:19:33;;;;;;;3.97;3.33;;;;;;;26.30;33.67;97538.13;5088573;28;20185;-70
2023/06/06 08:21:58;;;;;;;4.37;3.30;;;;;;;26.27;32.34;97533.25;5088161;28;20223;-70
2023/06/06 08:24:24;;;;;;;4.63;3.23;;;;;;;26.42;32.90;97549.59;5093364;28;20193;-70
2023/06/06 08:26:49;;;;;;;4.23;3.17;;;;;;;26.53;32.02;97540.59;5088386;28;20266;-69
2023/06/06 08:29:14;;;;;;;5.50;2.87;;;;;;;26.55;31.53;97545.72;5088543;28;20264;-69
2023/06/06 08:31:41;;;;;;;3.63;2.90;;;;;;;26.58;31.35;97545.22;5089651;28;20247;-70
2023/06/06 08:34:07;;;;;;;3.20;2.90;;;;;;;26.53;31.12;97545.16;5066927;28;20197;-70
2023/06/06 08:36:32;;;;;;;3.10;2.90;;;;;;;26.72;31.29;97542.97;5094387;28;20577;-71
2023/06/06 08:38:58;;;;;;;4.60;3.50;;;;;;;26.88;31.24;97530.59;5086650;28;20213;-69
2023/06/06 08:41:25;;;;;;;3.53;2.80;;;;;;;26.98;30.74;97535.28;5088548;28;20181;-69
2023/06/06 08:43:53;;;;;;;10.93;3.10;;;;;;;27.10;31.12;97541.31;5088812;28;20196;-69
2023/06/06 08:46:18;;;;;;;5.77;3.13;;;;;;;27.14;30.86;97533.59;5093458;28;20443;-69
2023/06/06 08:48:45;;;;;;;5.30;3.20;;;;;;;27.17;30.27;97543.03;5086877;28;21099;-70
2023/06/06 08:51:12;;;;;;;3.10;2.73;;;;;;;27.29;30.33;97535.63;5072096;28;20190;-69
2023/06/06 08:53:38;;;;;;;4.73;2.90;;;;;;;27.43;30.43;97542.22;5087816;28;20438;-70
2023/06/06 08:56:04;;;;;;;3.30;3.03;;;;;;;27.57;30.70;97552.63;5085257;28;20960;-69
2023/06/06 08:58:29;;;;;;;3.57;3.27;;;;;;;27.56;30.24;97540.22;5087855;28;20212;-69
2023/06/06 09:00:59;;;;;;;5.90;3.43;;;;;;;27.64;30.01;97539.75;5069423;28;20830;-69
2023/06/06 09:03:31;;;;;;;3.77;3.40;;;;;;;27.81;29.72;97541.53;5084009;28;20189;-69
2023/06/06 09:06:01;;;;;;;4.43;3.30;;;;;;;27.74;29.85;97536.34;5075394;28;20532;-68
2023/06/06 09:08:26;;;;;;;3.47;3.00;;;;;;;27.80;30.63;97547.97;5087881;28;20569;-70
2023/06/06 09:10:51;;;;;;;3.80;3.10;;;;;;;27.94;30.12;97533.03;5087215;28;20527;-71
2023/06/06 09:13:17;;;;;;;7.00;3.30;;;;;;;28.13;30.37;97543.41;5087576;28;20335;-69
2023/06/06 09:15:45;;;;;;;6.03;3.67;;;;;;;28.22;29.87;97539.19;5090447;28;20217;-70
2023/06/06 09:18:10;;;;;;;4.80;3.03;;;;;;;28.31;29.98;97545.72;5061788;28;20209;-68
2023/06/06 09:20:37;;;;;;;4.40;3.20;;;;;;;28.42;29.32;97537.69;5087715;28;20436;-69
2023/06/06 09:23:03;;;;;;;3.33;3.03;;;;;;;28.46;29.17;97534.22;5087236;28;20185;-68
2023/06/06 09:25:29;;;;;;;11.63;3.60;;;;;;;28.35;28.88;97538.72;5092040;28;20431;-69
2023/06/06 09:28:00;;;;;;;10.13;3.60;;;;;;;28.47;29.25;97535.84;5090680;28;20455;-71
2023/06/06 09:30:27;;;;;;;3.87;3.43;;;;;;;28.57;29.28;97535.09;5097285;28;20214;-69
2023/06/06 09:33:02;;;;;;;4.80;3.13;;;;;;;28.68;29.04;97533.25;5086357;28;20615;-72
2023/06/06 09:35:35;;;;;;;4.93;3.80;;;;;;;28.81;29.15;97526.59;5094098;28;20449;-70
2023/06/06 09:38:08;;;;;;;3.83;3.50;;;;;;;28.86;29.44;97536.59;5090489;28;20459;-70
2023/06/06 09:40:45;;;;;;;6.20;3.87;;;;;;;28.98;29.57;97536.38;5085223;28;20865;-72
2023/06/06 09:43:11;;;;;;;6.80;3.40;;;;;;;29.11;29.24;97534.00;5085025;28;20419;-69
2023/06/06 09:45:48;;;;;;;3.87;3.57;;;;;;;29.22;28.62;97529.44;5059346;28;21053;-70
2023/06/06 09:48:19;;;;;;;7.17;3.83;;;;;;;29.33;28.46;97532.97;5084467;28;20201;-71
2023/06/06 09:50:45;;;;;;;3.60;3.27;;;;;;;29.40;28.45;97535.44;5087198;28;20523;-71
2023/06/06 09:53:12;;;;;;;4.50;3.70;;;;;;;29.48;28.10;97529.53;5087321;28;20460;-70
2023/06/06 09:55:38;;;;;;;6.23;3.47;;;;;;;29.49;27.50;97531.13;5092953;28;20632;-70
2023/06/06 09:58:06;;;;;;;6.63;3.60;;;;;;;29.53;27.94;97532.22;5089792;28;20477;-71
2023/06/06 10:00:37;;;;;;;6.23;3.80;;;;;;;29.53;27.58;97531.44;5087678;28;20467;-70
2023/06/06 10:03:04;;;;;;;3.70;3.40;;;;;;;29.57;27.49;97525.22;5085194;28;20522;-70
2023/06/06 10:05:30;;;;;;;5.97;3.10;;;;;;;29.71;27.22;97517.38;5081855;28;20436;-70
2023/06/06 10:07:56;;;;;;;5.03;3.37;;;;;;;29.88;27.41;97516.31;5069010;28;20474;-70
2023/06/06 10:10:22;;;;;;;3.80;3.40;;;;;;;30.06;27.40;97508.75;5069204;28;20427;-70
2023/06/06 10:12:48;;;;;;;13.03;3.50;;;;;;;30.06;26.78;97514.97;5086621;28;20485;-70
2023/06/06 10:15:13;;;;;;;7.20;3.70;;;;;;;30.09;26.73;97514.44;5096613;28;20634;-70
2023/06/06 10:17:41;;;;;;;3.73;2.83;;;;;;;30.19;26.38;97509.03;5088243;28;20292;-69
2023/06/06 10:20:10;;;;;;;4.80;3.47;;;;;;;30.26;25.21;97514.16;5097374;28;20193;-69
2023/06/06 10:22:36;;;;;;;4.80;3.13;;;;;;;30.34;24.93;97520.88;5096658;28;20455;-72
2023/06/06 10:25:11;;;;;;;3.60;3.10;;;;;;;30.39;25.45;97504.66;5098071;28;20427;-69
2023/06/06 10:27:46;;;;;;;5.00;2.93;;;;;;;30.45;23.98;97514.38;5073177;28;20458;-71
2023/06/06 10:30:30;;;;;;;5.47;3.20;;;;;;;30.57;24.91;97503.25;5090476;28;20419;-70
2023/06/06 10:33:11;;;;;;;5.17;3.80;;;;;;;30.67;24.57;97498.94;5074983;28;20467;-70
2023/06/06 10:35:37;;;;;;;3.90;3.17;;;;;;;30.70;24.47;97501.88;5079693;28;20463;-71
2023/06/06 10:38:09;;;;;;;4.87;3.30;;;;;;;30.61;24.52;97498.94;5104200;28;20450;-69
2023/06/06 10:40:52;;;;;;;11.47;3.57;;;;;;;30.68;25.28;97501.34;5072582;28;20435;-72
2023/06/06 10:43:32;;;;;;;4.23;3.30;;;;;;;30.88;25.03;97499.63;5092719;28;20429;-68
2023/06/06 10:45:58;;;;;;;5.00;3.30;;;;;;;30.89;24.42;97495.84;5096948;28;20469;-71
2023/06/06 10:48:39;;;;;;;6.43;3.30;;;;;;;30.83;24.56;97489.66;5079111;28;20943;-70
2023/06/06 10:51:06;;;;;;;3.40;3.10;;;;;;;30.99;24.95;97490.41;5088944;28;20475;-72
2023/06/06 10:53:31;;;;;;;5.53;3.40;;;;;;;31.10;24.82;97493.84;5089970;28;20467;-70
2023/06/06 10:55:57;;;;;;;5.90;3.07;;;;;;;31.22;24.55;97490.84;5090554;28;20438;-71
2023/06/06 10:58:32;;;;;;;4.50;3.33;;;;;;;31.27;24.26;97490.78;5090842;28;20236;-69
2023/06/06 11:00:59;;;;;;;3.70;3.30;;;;;;;31.41;23.99;97491.78;5077402;28;20189;-72
2023/06/06 11:03:38;;;;;;;3.67;3.30;;;;;;;31.36;24.01;97483.72;5091852;28;20516;-70
2023/06/06 11:06:06;;;;;;;4.43;3.43;;;;;;;31.49;23.94;97481.47;5071523;28;20519;-71
2023/06/06 11:08:53;;;;;;;4.60;3.20;;;;;;;31.44;24.43;97482.31;5090082;28;21019;-70
2023/06/06 11:11:29;;;;;;;6.50;3.50;;;;;;;31.42;23.20;97479.06;5096628;28;20432;-69
2023/06/06 11:13:56;;;;;;;12.30;3.80;;;;;;;31.40;23.39;97478.53;5098965;28;20449;-70
2023/06/06 11:16:40;;;;;;;5.33;3.20;;;;;;;31.43;22.75;97466.31;5092119;28;20436;-70
2023/06/06 11:19:11;;;;;;;5.40;3.27;;;;;;;31.55;22.92;97464.88;5089829;28;20459;-69
2023/06/06 11:21:37;;;;;;;5.40;3.53;;;;;;;31.70;22.82;97471.28;5098671;28;20430;-71
2023/06/06 11:24:04;;;;;;;8.17;3.47;;;;;;;31.83;23.59;97459.00;5098895;28;20431;-71
2023/06/06 11:26:29;;;;;;;4.90;3.37;;;;;;;31.79;23.99;97449.81;5089248;28;20752;-70
2023/06/06 11:28:55;;;;;;;6.23;3.30;;;;;;;31.84;23.44;97452.47;5071152;28;20485;-72
2023/06/06 11:31:24;;;;;;;6.40;3.30;;;;;;;31.37;24.12;97460.97;5089663;28;20193;-70
2023/06/06 11:33:50;;;;;;;4.57;3.30;;;;;;;31.14;24.06;97458.94;5097746;28;20553;-71